Time;durP1;ratioP1;P1;durP2;ratioP2;P2;SDS_P1;SDS_P2;PMS_P1;PMS_P2;Temp;Humidity;BMP_temperature;BMP_pressure;BME280_temperature;BME280_humidity;BME280_pressure;Samples;Min_cycle;Max_cycle;Signal;HPM_P1;HPM_P2
2021/07/07 00:02:42;;;;;;;0.82;0.82;;;17.20;86.80;;;;;;10161150;28;20052;-60
2021/07/07 00:07:33;;;;;;;0.70;0.60;;;17.30;86.50;;;;;;10178503;28;20044;-60
2021/07/07 00:12:23;;;;;;;1.67;0.77;;;17.30;86.50;;;;;;10160145;28;20275;-60
2021/07/07 00:17:14;;;;;;;1.08;0.70;;;17.30;86.70;;;;;;10178209;28;20039;-61
2021/07/07 00:22:05;;;;;;;1.13;0.50;;;17.20;86.80;;;;;;10177925;28;20024;-58
2021/07/07 00:26:56;;;;;;;1.13;0.60;;;17.20;86.60;;;;;;10178550;28;20266;-59
2021/07/07 00:31:46;;;;;;;1.73;0.82;;;17.20;86.70;;;;;;10178080;28;20197;-58
2021/07/07 00:36:37;;;;;;;3.30;0.82;;;17.20;86.60;;;;;;10177210;28;20110;-59
2021/07/07 00:41:27;;;;;;;1.52;0.80;;;17.30;86.60;;;;;;10177374;28;20115;-60
2021/07/07 00:46:18;;;;;;;4.35;0.90;;;17.20;86.40;;;;;;10177440;28;20052;-61
2021/07/07 00:51:12;;;;;;;1.70;0.60;;;17.30;86.50;;;;;;10176622;28;20043;-59
2021/07/07 00:56:03;;;;;;;0.88;0.77;;;17.20;86.60;;;;;;10176512;28;20040;-60
2021/07/07 01:00:54;;;;;;;2.80;0.70;;;17.10;87.10;;;;;;10176510;28;20052;-60
2021/07/07 01:05:44;;;;;;;1.15;0.73;;;17.10;86.50;;;;;;10175844;28;20130;-61
2021/07/07 01:10:36;;;;;;;1.52;0.70;;;17.10;86.50;;;;;;10176660;28;20093;-61
2021/07/07 01:15:27;;;;;;;2.47;0.73;;;17.20;86.40;;;;;;10176094;28;20487;-62
2021/07/07 01:20:21;;;;;;;1.75;0.60;;;17.20;86.20;;;;;;10175683;28;20027;-61
2021/07/07 01:25:13;;;;;;;0.93;0.70;;;17.10;86.10;;;;;;10175274;28;20266;-61
2021/07/07 01:30:11;;;;;;;1.75;1.00;;;17.00;86.50;;;;;;10175703;28;20182;-60
2021/07/07 01:35:03;;;;;;;3.25;0.90;;;17.10;86.50;;;;;;10174284;28;20059;-62
2021/07/07 01:39:54;;;;;;;2.15;0.80;;;17.10;86.10;;;;;;10175207;28;20024;-61
2021/07/07 01:44:45;;;;;;;1.45;0.98;;;17.10;86.10;;;;;;10175206;28;20040;-61
2021/07/07 01:49:35;;;;;;;2.13;0.93;;;17.10;86.30;;;;;;10174578;28;20039;-59
2021/07/07 01:54:26;;;;;;;1.42;0.88;;;17.00;86.20;;;;;;10174682;28;20461;-60
2021/07/07 01:59:17;;;;;;;3.83;1.00;;;17.10;86.30;;;;;;10174905;28;20147;-61
2021/07/07 02:04:07;;;;;;;2.17;1.15;;;17.00;86.40;;;;;;10173495;28;20040;-60
2021/07/07 02:08:59;;;;;;;1.90;0.90;;;17.00;86.30;;;;;;10172824;28;20031;-59
2021/07/07 02:13:50;;;;;;;1.48;0.82;;;17.10;86.20;;;;;;10174098;28;20433;-59
2021/07/07 02:18:40;;;;;;;2.42;0.85;;;17.00;86.20;;;;;;10155626;28;20020;-59
2021/07/07 02:23:31;;;;;;;1.48;0.68;;;17.00;86.50;;;;;;10173755;28;20096;-61
2021/07/07 02:28:24;;;;;;;1.15;0.80;;;17.00;86.30;;;;;;10174548;28;20031;-59
2021/07/07 02:33:15;;;;;;;3.30;0.80;;;17.00;86.50;;;;;;10174186;28;20148;-59
2021/07/07 02:38:09;;;;;;;1.58;0.82;;;17.00;86.50;;;;;;10173399;28;20157;-60
2021/07/07 02:43:00;;;;;;;2.28;1.10;;;17.00;86.50;;;;;;10173821;28;20093;-59
2021/07/07 02:47:51;;;;;;;1.92;1.00;;;17.00;86.40;;;;;;10173048;28;20097;-59
2021/07/07 02:52:44;;;;;;;3.13;1.02;;;17.00;86.60;;;;;;10173750;28;20511;-58
2021/07/07 03:02:44;;;;;;;2.65;0.80;;;16.90;87.00;;;;;;10172166;28;20059;-59
2021/07/07 03:07:35;;;;;;;1.80;1.00;;;16.80;86.90;;;;;;10170406;28;20174;-64
2021/07/07 03:12:25;;;;;;;2.45;1.10;;;16.90;87.10;;;;;;10172911;28;20141;-62
2021/07/07 03:17:16;;;;;;;2.33;1.00;;;16.80;87.00;;;;;;10178821;28;20450;-59
2021/07/07 03:22:07;;;;;;;1.45;1.25;;;16.80;87.00;;;;;;10180091;28;20024;-59
2021/07/07 03:26:57;;;;;;;3.30;1.20;;;16.90;87.00;;;;;;10179863;28;20543;-60
2021/07/07 03:31:48;;;;;;;4.75;1.10;;;16.80;87.00;;;;;;10179849;28;20028;-61
2021/07/07 03:36:39;;;;;;;4.28;1.20;;;16.90;87.10;;;;;;10179755;28;20028;-60
2021/07/07 03:41:30;;;;;;;2.65;1.40;;;16.90;87.30;;;;;;10179961;28;20103;-60
2021/07/07 03:46:21;;;;;;;1.58;1.30;;;16.70;87.60;;;;;;10180063;28;20119;-60
2021/07/07 03:51:12;;;;;;;3.58;1.55;;;16.80;87.40;;;;;;10179356;28;20463;-61
2021/07/07 03:56:02;;;;;;;2.25;1.50;;;16.80;87.40;;;;;;10178896;28;20606;-60
2021/07/07 04:00:53;;;;;;;5.07;1.50;;;16.80;87.60;;;;;;10178575;28;20588;-61
2021/07/07 04:05:44;;;;;;;3.60;1.63;;;16.70;87.60;;;;;;10178628;28;20392;-61
2021/07/07 04:10:35;;;;;;;2.50;1.35;;;16.80;87.60;;;;;;10178411;28;20042;-60
2021/07/07 04:15:25;;;;;;;4.55;1.42;;;16.80;87.50;;;;;;10178189;28;20032;-61
2021/07/07 04:20:18;;;;;;;2.42;1.40;;;16.80;87.60;;;;;;10178501;28;20115;-61
2021/07/07 04:25:11;;;;;;;2.70;1.50;;;16.70;87.80;;;;;;10177783;28;20048;-61
2021/07/07 04:30:05;;;;;;;2.13;1.27;;;16.80;87.70;;;;;;10177628;28;20405;-62
2021/07/07 04:34:55;;;;;;;4.70;1.73;;;16.80;87.70;;;;;;10178392;28;20035;-58
2021/07/07 04:39:46;;;;;;;4.57;2.05;;;16.90;87.50;;;;;;10177110;28;20048;-60
2021/07/07 04:44:36;;;;;;;2.80;1.42;;;16.80;88.00;;;;;;10158947;28;20094;-59
2021/07/07 04:49:27;;;;;;;2.30;1.48;;;16.80;87.80;;;;;;10177624;28;20024;-61
2021/07/07 04:54:18;;;;;;;3.35;1.60;;;16.70;88.00;;;;;;10177118;28;20032;-58
2021/07/07 04:59:08;;;;;;;4.38;1.50;;;16.80;88.10;;;;;;10177071;28;20028;-59
2021/07/07 05:03:59;;;;;;;5.47;2.10;;;16.70;88.00;;;;;;10175486;28;20151;-60
2021/07/07 05:08:50;;;;;;;2.33;2.13;;;16.50;88.40;;;;;;10173495;28;20032;-59
2021/07/07 05:13:41;;;;;;;4.88;1.50;;;16.60;88.40;;;;;;10157516;28;20279;-59
2021/07/07 05:18:31;;;;;;;2.53;1.60;;;16.80;88.10;;;;;;10175949;28;20043;-59
2021/07/07 05:23:22;;;;;;;2.83;1.35;;;16.90;88.00;;;;;;10157387;28;20066;-58
2021/07/07 05:28:13;;;;;;;2.80;1.45;;;17.00;87.80;;;;;;10175727;28;20138;-59
2021/07/07 05:33:06;;;;;;;3.20;1.70;;;17.20;87.60;;;;;;10176027;28;20035;-58
2021/07/07 05:37:56;;;;;;;3.20;1.63;;;17.20;87.50;;;;;;10174159;28;20498;-59
2021/07/07 05:42:54;;;;;;;3.72;1.77;;;17.40;87.40;;;;;;10175699;28;20055;-60
2021/07/07 05:47:45;;;;;;;2.95;1.20;;;17.40;87.20;;;;;;10174484;28;20095;-59
2021/07/07 05:52:35;;;;;;;2.72;1.15;;;17.40;87.40;;;;;;10174231;28;20028;-59
2021/07/07 05:57:37;;;;;;;3.15;1.60;;;17.40;87.50;;;;;;10174306;28;20031;-59
2021/07/07 06:02:28;;;;;;;1.80;1.05;;;17.60;87.20;;;;;;10165000;28;20040;-60
2021/07/07 06:07:18;;;;;;;1.63;1.10;;;17.60;86.90;;;;;;10174487;28;20032;-59
2021/07/07 06:12:09;;;;;;;5.05;1.42;;;17.60;87.00;;;;;;10174152;28;20032;-59
2021/07/07 06:17:00;;;;;;;3.20;1.35;;;17.70;86.50;;;;;;10172421;28;20032;-59
2021/07/07 06:21:50;;;;;;;2.90;1.35;;;17.50;86.60;;;;;;10174431;28;20032;-59
2021/07/07 06:26:41;;;;;;;3.28;1.38;;;17.40;86.70;;;;;;10172341;28;20036;-60
2021/07/07 06:31:35;;;;;;;4.10;1.42;;;17.30;86.70;;;;;;10170241;28;20164;-58
2021/07/07 06:36:26;;;;;;;2.42;1.27;;;17.30;86.70;;;;;;10170031;28;20034;-59
2021/07/07 06:41:16;;;;;;;3.13;0.95;;;17.30;86.40;;;;;;10172489;28;20046;-60
2021/07/07 06:46:07;;;;;;;3.35;1.42;;;17.30;86.40;;;;;;10172102;28;20091;-59
2021/07/07 06:50:58;;;;;;;4.90;1.50;;;17.40;86.30;;;;;;10164269;28;20032;-61
2021/07/07 06:55:49;;;;;;;2.47;1.40;;;17.30;86.40;;;;;;10180482;28;20363;-59
2021/07/07 07:00:40;;;;;;;4.10;2.80;;;17.40;86.30;;;;;;10191168;28;20508;-58
2021/07/07 07:05:33;;;;;;;2.28;1.52;;;17.50;86.20;;;;;;10199560;28;20120;-58
2021/07/07 07:10:23;;;;;;;3.55;1.73;;;17.50;86.60;;;;;;10179514;28;20032;-59
2021/07/07 07:15:15;;;;;;;6.80;3.03;;;17.60;85.90;;;;;;10178529;28;20506;-60
2021/07/07 07:20:09;;;;;;;4.90;2.47;;;17.80;85.60;;;;;;10179763;28;20470;-60
2021/07/07 07:25:00;;;;;;;2.72;1.60;;;17.90;85.30;;;;;;10144633;28;20074;-60
2021/07/07 07:29:50;;;;;;;3.38;1.77;;;18.00;85.40;;;;;;10179203;28;20040;-59
2021/07/07 07:34:41;;;;;;;4.30;2.10;;;18.00;85.40;;;;;;10176833;28;20035;-61
2021/07/07 07:39:43;;;;;;;2.20;1.35;;;18.10;85.50;;;;;;10177029;28;20117;-59
2021/07/07 07:44:34;;;;;;;3.38;1.98;;;18.30;85.20;;;;;;10159774;28;20532;-59
2021/07/07 07:49:25;;;;;;;4.07;1.85;;;18.30;85.30;;;;;;10179810;28;20035;-59
2021/07/07 07:54:16;;;;;;;2.60;1.63;;;18.50;85.20;;;;;;10179544;28;20059;-59
2021/07/07 07:59:07;;;;;;;2.97;1.55;;;18.60;85.00;;;;;;10178107;28;20081;-59
2021/07/07 08:03:58;;;;;;;3.13;1.75;;;18.70;84.70;;;;;;10177388;28;20480;-60
2021/07/07 08:08:48;;;;;;;5.25;1.40;;;18.60;84.90;;;;;;10178843;28;20107;-58
2021/07/07 08:13:40;;;;;;;3.25;2.05;;;18.80;84.70;;;;;;10160111;28;20228;-58
2021/07/07 08:18:31;;;;;;;5.30;2.33;;;19.00;84.50;;;;;;10175643;28;20043;-59
2021/07/07 08:23:23;;;;;;;3.42;1.58;;;19.30;83.90;;;;;;10178191;28;20044;-58
2021/07/07 08:28:14;;;;;;;3.90;1.90;;;19.40;84.40;;;;;;10159911;28;20474;-59
2021/07/07 08:33:05;;;;;;;2.83;2.10;;;19.50;83.50;;;;;;10177800;28;20043;-59
2021/07/07 08:37:55;;;;;;;4.88;2.05;;;19.80;83.30;;;;;;10177524;28;20039;-58
2021/07/07 08:42:46;;;;;;;2.60;1.40;;;19.90;83.20;;;;;;10177847;28;20502;-59
2021/07/07 08:47:41;;;;;;;2.10;0.95;;;20.00;83.00;;;;;;10177200;28;20043;-58
2021/07/07 08:52:31;;;;;;;1.90;1.02;;;20.10;82.80;;;;;;10177093;28;20509;-58
2021/07/07 08:57:22;;;;;;;2.40;1.40;;;20.00;82.40;;;;;;10175603;28;20028;-58
2021/07/07 09:02:13;;;;;;;2.90;1.02;;;20.10;82.40;;;;;;10153623;28;20124;-60
2021/07/07 09:07:06;;;;;;;2.42;1.02;;;20.20;81.90;;;;;;10169718;28;20028;-59
2021/07/07 09:11:57;;;;;;;3.20;1.35;;;20.40;81.40;;;;;;10175594;28;20067;-60
2021/07/07 09:16:51;;;;;;;2.45;1.00;;;20.60;80.60;;;;;;10171703;28;20469;-60
2021/07/07 09:21:48;;;;;;;1.50;1.05;;;20.90;80.00;;;;;;10169798;28;20542;-61
2021/07/07 09:26:40;;;;;;;1.67;1.10;;;21.30;78.80;;;;;;10156941;28;20095;-60
2021/07/07 09:31:41;;;;;;;1.42;0.80;;;21.60;78.50;;;;;;10175303;28;20567;-60
2021/07/07 09:36:31;;;;;;;4.63;1.30;;;21.80;78.20;;;;;;10157112;28;20410;-59
2021/07/07 09:41:22;;;;;;;3.47;1.15;;;21.70;77.10;;;;;;10174436;28;20125;-60
2021/07/07 09:46:13;;;;;;;1.73;1.17;;;21.80;76.60;;;;;;10174260;28;20163;-59
2021/07/07 09:51:05;;;;;;;3.17;1.13;;;21.90;76.10;;;;;;10174527;28;20102;-60
2021/07/07 09:55:56;;;;;;;3.03;1.85;;;21.70;76.00;;;;;;10174351;28;20046;-60
2021/07/07 10:00:47;;;;;;;2.80;1.58;;;21.40;76.10;;;;;;10194546;28;20039;-59
2021/07/07 10:05:40;;;;;;;4.40;1.50;;;21.70;75.60;;;;;;10184789;28;20131;-61
2021/07/07 10:10:32;;;;;;;5.00;2.90;;;21.80;74.90;;;;;;10172186;28;20541;-60
2021/07/07 10:15:23;;;;;;;4.90;2.50;;;21.90;74.70;;;;;;10173491;28;20028;-60
2021/07/07 10:20:15;;;;;;;3.38;1.92;;;22.10;74.10;;;;;;10155076;28;20398;-59
2021/07/07 10:25:08;;;;;;;4.05;1.27;;;22.20;73.50;;;;;;10172126;28;20036;-60
2021/07/07 10:29:59;;;;;;;6.68;1.90;;;22.20;72.80;;;;;;10173514;28;20115;-61
2021/07/07 10:34:49;;;;;;;10.18;3.78;;;22.30;72.00;;;;;;10173516;28;20558;-61
2021/07/07 10:39:40;;;;;;;3.17;1.70;;;22.40;71.30;;;;;;10173270;28;20039;-60
2021/07/07 10:44:40;;;;;;;2.13;1.00;;;22.10;71.40;;;;;;10173245;28;20086;-59
2021/07/07 10:49:37;;;;;;;1.83;1.27;;;22.00;71.20;;;;;;10171074;28;20335;-60
2021/07/07 10:54:31;;;;;;;4.55;2.60;;;22.30;70.60;;;;;;10129204;28;20075;-62
2021/07/07 10:59:31;;;;;;;7.50;2.10;;;22.30;69.90;;;;;;10129777;28;20083;-59
2021/07/07 11:04:32;;;;;;;4.53;1.58;;;22.60;69.30;;;;;;10145280;28;20041;-60
2021/07/07 11:09:27;;;;;;;5.68;2.17;;;22.70;68.90;;;;;;10169443;28;20036;-60
2021/07/07 11:14:27;;;;;;;4.68;2.33;;;22.70;68.80;;;;;;10173121;28;20055;-61
2021/07/07 11:19:37;;;;;;;4.65;1.88;;;23.00;67.90;;;;;;10172343;28;20028;-59
2021/07/07 11:24:28;;;;;;;7.38;2.10;;;23.10;66.60;;;;;;10172302;28;20047;-59
2021/07/07 11:29:19;;;;;;;9.25;2.20;;;23.30;66.70;;;;;;10172204;28;20028;-58
2021/07/07 11:34:09;;;;;;;2.38;1.33;;;23.20;66.50;;;;;;10171890;28;20021;-59
2021/07/07 11:39:07;;;;;;;5.50;1.92;;;23.30;65.80;;;;;;10178662;28;20024;-60
2021/07/07 11:43:59;;;;;;;5.00;1.67;;;23.50;64.60;;;;;;10178754;28;20429;-58
2021/07/07 11:48:49;;;;;;;2.78;0.90;;;23.40;64.50;;;;;;10160528;28;20024;-61
2021/07/07 11:53:51;;;;;;;4.03;1.17;;;23.30;63.90;;;;;;10178370;28;20036;-61
2021/07/07 11:58:57;;;;;;;2.50;1.35;;;23.60;63.40;;;;;;10155992;28;20055;-58
2021/07/07 12:03:58;;;;;;;7.18;1.75;;;24.00;62.40;;;;;;10146768;28;20052;-59
2021/07/07 12:08:53;;;;;;;4.55;1.35;;;24.30;61.20;;;;;;10155735;28;20046;-59
2021/07/07 12:13:50;;;;;;;6.40;3.15;;;24.20;61.80;;;;;;10159876;28;20028;-61
2021/07/07 12:18:43;;;;;;;3.00;1.20;;;24.70;60.90;;;;;;10177740;28;20032;-61
2021/07/07 12:23:47;;;;;;;4.38;2.30;;;25.40;60.30;;;;;;10178166;28;20070;-59
2021/07/07 12:28:38;;;;;;;4.43;1.30;;;26.40;55.70;;;;;;10178302;28;20439;-60
2021/07/07 12:33:30;;;;;;;2.33;1.25;;;26.60;58.60;;;;;;10177642;28;20111;-60
2021/07/07 12:38:20;;;;;;;2.72;1.33;;;26.70;57.90;;;;;;10177659;28;20036;-61
2021/07/07 12:43:16;;;;;;;2.90;0.77;;;26.70;57.60;;;;;;10178486;28;20417;-60
2021/07/07 12:48:08;;;;;;;1.33;0.90;;;26.50;57.10;;;;;;10176562;28;20116;-60
2021/07/07 12:52:59;;;;;;;3.93;1.57;;;27.60;56.70;;;;;;10177079;28;20032;-63
2021/07/07 12:58:05;;;;;;;2.60;0.95;;;28.60;55.50;;;;;;10177507;28;20879;-58
2021/07/07 13:03:02;;;;;;;3.33;1.27;;;28.80;54.70;;;;;;10176541;28;20134;-62
2021/07/07 13:07:57;;;;;;;2.15;1.15;;;30.20;52.50;;;;;;10176558;28;20028;-59
2021/07/07 13:12:48;;;;;;;3.28;1.00;;;30.10;50.80;;;;;;10177396;28;20040;-60
2021/07/07 13:17:39;;;;;;;6.10;2.20;;;28.50;52.10;;;;;;10176231;28;20032;-61
2021/07/07 13:22:29;;;;;;;1.92;1.17;;;27.70;51.40;;;;;;10176193;28;20040;-60
2021/07/07 13:27:20;;;;;;;4.82;1.83;;;27.30;51.10;;;;;;10175492;28;20028;-59
2021/07/07 13:32:15;;;;;;;2.70;0.98;;;26.70;50.90;;;;;;10175499;28;20079;-60
2021/07/07 13:37:16;;;;;;;2.00;0.82;;;26.70;50.50;;;;;;10174806;28;20025;-59
2021/07/07 13:42:07;;;;;;;1.38;1.10;;;28.10;48.80;;;;;;10119198;28;20044;-59
2021/07/07 13:46:58;;;;;;;3.70;1.33;;;29.10;47.30;;;;;;10167607;28;20122;-59
2021/07/07 13:51:49;;;;;;;2.83;0.98;;;29.90;47.50;;;;;;10160785;28;20496;-59
2021/07/07 13:56:39;;;;;;;3.33;1.00;;;30.00;45.70;;;;;;10174005;28;20032;-60
2021/07/07 14:01:30;;;;;;;2.20;1.10;;;31.20;44.20;;;;;;10155393;28;20056;-61
2021/07/07 14:06:21;;;;;;;1.95;1.00;;;32.30;43.00;;;;;;10172961;28;20134;-59
2021/07/07 14:11:11;;;;;;;2.23;1.37;;;33.50;41.60;;;;;;10173733;28;20035;-61
2021/07/07 14:16:02;;;;;;;1.00;0.90;;;34.10;40.70;;;;;;10174417;28;20036;-61
2021/07/07 14:20:53;;;;;;;4.80;1.35;;;34.00;40.50;;;;;;10174805;28;20028;-61
2021/07/07 14:25:44;;;;;;;2.47;1.02;;;34.60;40.00;;;;;;10173070;28;20044;-59
2021/07/07 14:30:35;;;;;;;2.92;0.90;;;34.90;39.50;;;;;;10174097;28;20470;-59
2021/07/07 14:35:25;;;;;;;1.60;1.00;;;34.80;39.20;;;;;;10174113;28;20031;-60
2021/07/07 14:40:16;;;;;;;3.60;1.93;;;35.10;38.80;;;;;;10173073;28;20032;-60
2021/07/07 14:45:08;;;;;;;3.13;1.20;;;34.10;39.50;;;;;;10174559;28;20162;-59
2021/07/07 14:49:59;;;;;;;1.58;1.00;;;33.10;40.10;;;;;;10173489;28;20493;-59
2021/07/07 14:54:49;;;;;;;1.87;1.10;;;34.40;38.50;;;;;;10174232;28;20039;-60
2021/07/07 14:59:40;;;;;;;1.67;0.90;;;34.50;37.60;;;;;;10184347;28;20111;-60
2021/07/07 15:04:31;;;;;;;1.20;0.70;;;33.90;37.40;;;;;;10196638;28;20035;-59
2021/07/07 15:09:22;;;;;;;1.53;0.80;;;34.40;36.80;;;;;;10193184;28;20032;-59
2021/07/07 15:14:13;;;;;;;1.58;1.00;;;35.00;35.80;;;;;;10200934;28;20621;-58
2021/07/07 15:19:04;;;;;;;1.13;0.83;;;35.20;35.10;;;;;;10206885;28;20035;-59
2021/07/07 15:23:58;;;;;;;2.90;1.42;;;35.40;34.90;;;;;;10221497;28;20032;-62
2021/07/07 15:28:50;;;;;;;4.15;0.90;;;34.60;35.10;;;;;;10221918;28;20039;-60
2021/07/07 15:33:41;;;;;;;2.45;1.20;;;35.00;35.00;;;;;;10203117;28;20035;-59
2021/07/07 15:38:34;;;;;;;1.30;1.20;;;35.50;34.40;;;;;;10198584;28;20027;-58
2021/07/07 15:43:24;;;;;;;3.65;0.80;;;36.20;34.20;;;;;;10179698;28;20048;-61
2021/07/07 15:48:15;;;;;;;1.20;0.90;;;36.30;33.30;;;;;;10179678;28;20104;-59
2021/07/07 15:53:06;;;;;;;1.13;1.00;;;35.50;33.60;;;;;;10178321;28;20613;-58
2021/07/07 15:57:56;;;;;;;2.45;1.13;;;34.50;34.00;;;;;;10195587;28;20039;-58
2021/07/07 16:02:47;;;;;;;4.38;2.60;;;32.80;35.40;;;;;;10212273;28;20050;-58
2021/07/07 16:07:38;;;;;;;2.97;1.50;;;34.60;33.50;;;;;;10168269;28;20119;-57
2021/07/07 16:12:29;;;;;;;1.53;1.10;;;35.90;32.50;;;;;;10159723;28;20032;-58
2021/07/07 16:17:19;;;;;;;3.93;2.07;;;36.50;32.20;;;;;;10166131;28;20332;-58
2021/07/07 16:22:10;;;;;;;3.00;1.15;;;37.40;32.10;;;;;;10180350;28;20267;-59
2021/07/07 16:27:01;;;;;;;;;;;38.10;31.60;;;;;;10189149;28;20063;-59
2021/07/07 16:31:51;;;;;;;2.50;1.40;;;38.30;31.20;;;;;;10178528;28;19908;-57
2021/07/07 16:36:42;;;;;;;1.17;0.82;;;39.50;31.00;;;;;;10159849;28;20184;-59
2021/07/07 16:41:33;;;;;;;2.25;1.10;;;39.60;30.00;;;;;;10177255;28;20043;-55
2021/07/07 16:46:25;;;;;;;1.08;0.85;;;40.00;29.80;;;;;;10178177;28;20498;-60
2021/07/07 16:51:16;;;;;;;1.63;1.00;;;40.60;28.90;;;;;;10177049;28;20028;-58
2021/07/07 16:56:06;;;;;;;1.55;1.35;;;40.40;28.70;;;;;;10176976;28;20032;-58
2021/07/07 17:00:57;;;;;;;1.55;1.17;;;40.90;28.20;;;;;;10185083;28;20117;-58
2021/07/07 17:05:48;;;;;;;2.17;0.95;;;41.20;27.80;;;;;;10176348;28;20533;-58
2021/07/07 17:10:39;;;;;;;1.73;0.93;;;40.80;27.50;;;;;;10177480;28;20028;-58
2021/07/07 17:15:30;;;;;;;2.60;1.00;;;40.50;27.50;;;;;;10176802;28;20114;-58
2021/07/07 17:20:20;;;;;;;;;;;39.80;27.30;;;;;;10176588;28;20055;-59
2021/07/07 17:25:11;;;;;;;3.40;0.90;;;39.00;27.60;;;;;;10176479;28;19916;-59
2021/07/07 17:30:04;;;;;;;;;;;39.50;27.70;;;;;;10176118;28;20510;-60
2021/07/07 17:34:54;;;;;;;3.60;1.92;;;39.70;27.60;;;;;;10175328;28;19904;-59
2021/07/07 17:39:45;;;;;;;3.50;1.67;;;40.30;27.50;;;;;;10165145;28;20028;-58
2021/07/07 17:44:36;;;;;;;1.67;1.00;;;39.50;27.90;;;;;;10175837;28;20264;-58
2021/07/07 17:49:26;;;;;;;0.73;0.70;;;39.30;28.10;;;;;;10174816;28;20032;-56
2021/07/07 17:54:17;;;;;;;1.70;1.03;;;38.60;28.20;;;;;;10175344;28;20406;-56
2021/07/07 17:59:08;;;;;;;2.33;0.80;;;37.90;28.60;;;;;;10174159;28;20127;-53
2021/07/07 18:03:59;;;;;;;3.53;1.40;;;37.40;28.80;;;;;;10155467;28;20047;-56
2021/07/07 18:08:49;;;;;;;6.10;1.20;;;34.70;30.10;;;;;;10173919;28;20032;-53
2021/07/07 18:13:40;;;;;;;3.85;1.13;;;32.40;32.30;;;;;;10173440;28;20398;-55
2021/07/07 18:18:31;;;;;;;1.95;0.80;;;31.20;33.40;;;;;;10167690;28;20042;-56
2021/07/07 18:23:22;;;;;;;2.38;1.25;;;30.30;34.20;;;;;;10174359;28;20036;-58
2021/07/07 18:28:18;;;;;;;2.30;1.50;;;30.00;34.30;;;;;;10173794;28;20135;-57
2021/07/07 18:33:09;;;;;;;8.68;1.98;;;29.60;35.00;;;;;;10173861;28;20283;-59
2021/07/07 18:38:00;;;;;;;3.78;1.45;;;29.30;35.60;;;;;;10154871;28;20032;-60
2021/07/07 18:42:51;;;;;;;3.10;1.42;;;29.00;36.10;;;;;;10173187;28;20123;-53
2021/07/07 18:47:42;;;;;;;3.30;2.00;;;28.70;36.60;;;;;;10178928;28;20176;-58
2021/07/07 18:52:32;;;;;;;4.50;2.10;;;28.40;37.40;;;;;;10171799;28;20036;-57
2021/07/07 18:57:23;;;;;;;11.73;6.00;;;28.30;37.90;;;;;;10176522;28;20032;-58
2021/07/07 19:02:14;;;;;;;5.28;2.83;;;28.20;38.30;;;;;;10180663;28;20062;-58
2021/07/07 19:07:06;;;;;;;5.38;3.80;;;28.00;39.00;;;;;;10180485;28;20039;-59
2021/07/07 19:11:56;;;;;;;4.72;3.13;;;27.80;39.40;;;;;;10181003;28;20560;-58
2021/07/07 19:16:48;;;;;;;5.53;2.10;;;27.70;39.90;;;;;;10180314;28;20095;-57
2021/07/07 19:21:40;;;;;;;4.97;2.63;;;27.70;40.50;;;;;;10180210;28;20028;-58
2021/07/07 19:26:31;;;;;;;3.15;2.60;;;27.50;41.00;;;;;;10179201;28;20464;-58
2021/07/07 19:31:22;;;;;;;3.00;1.95;;;27.30;41.60;;;;;;10178581;28;20461;-58
2021/07/07 19:36:13;;;;;;;2.83;1.65;;;27.10;41.90;;;;;;10179717;28;20039;-58
2021/07/07 19:41:03;;;;;;;3.08;1.95;;;27.10;42.10;;;;;;10178516;28;20020;-56
2021/07/07 19:45:54;;;;;;;2.70;1.63;;;27.00;42.50;;;;;;10178408;28;20044;-58
2021/07/07 19:50:45;;;;;;;3.72;1.90;;;26.90;43.00;;;;;;10178600;28;20512;-57
2021/07/07 19:55:36;;;;;;;3.95;2.30;;;26.80;43.30;;;;;;10173190;28;20054;-57
2021/07/07 20:00:27;;;;;;;4.93;2.25;;;26.70;43.90;;;;;;10176692;28;20436;-58
2021/07/07 20:05:18;;;;;;;3.25;1.75;;;26.60;44.60;;;;;;10178742;28;20071;-57
2021/07/07 20:10:11;;;;;;;7.45;2.90;;;26.40;45.30;;;;;;10178180;28;20095;-59
2021/07/07 20:15:04;;;;;;;3.88;2.10;;;26.30;45.80;;;;;;10178564;28;20115;-59
2021/07/07 20:19:56;;;;;;;5.60;2.63;;;26.20;46.30;;;;;;10174406;28;20510;-57
2021/07/07 20:24:47;;;;;;;4.82;2.53;;;26.10;46.70;;;;;;10156528;28;20426;-53
2021/07/07 20:29:38;;;;;;;4.57;2.55;;;26.20;47.00;;;;;;10177189;28;20086;-50
2021/07/07 20:34:29;;;;;;;2.88;2.10;;;26.10;47.30;;;;;;10168517;28;20035;-58
2021/07/07 20:39:19;;;;;;;8.68;3.05;;;26.10;47.40;;;;;;10178111;28;20028;-58
2021/07/07 20:44:10;;;;;;;4.45;2.08;;;26.00;47.90;;;;;;10177400;28;20185;-53
2021/07/07 20:49:02;;;;;;;3.55;2.22;;;26.10;48.00;;;;;;10177014;28;20166;-55
2021/07/07 20:53:52;;;;;;;4.85;2.00;;;26.10;48.20;;;;;;10176773;28;20035;-53
2021/07/07 20:58:43;;;;;;;3.30;2.30;;;26.00;48.50;;;;;;10179066;28;20035;-55
2021/07/07 21:03:34;;;;;;;6.43;2.38;;;25.90;48.80;;;;;;10217848;28;20031;-51
2021/07/07 21:08:24;;;;;;;4.18;2.33;;;25.90;49.00;;;;;;10201309;28;20062;-55
2021/07/07 21:13:15;;;;;;;3.70;2.22;;;25.90;49.40;;;;;;10176874;28;20042;-54
2021/07/07 21:18:06;;;;;;;6.75;2.83;;;25.90;49.50;;;;;;10176321;28;20028;-54
2021/07/07 21:22:57;;;;;;;3.75;3.20;;;25.90;49.90;;;;;;10157856;28;20123;-56
2021/07/07 21:27:49;;;;;;;5.30;3.55;;;25.80;50.10;;;;;;10176199;28;20040;-57
2021/07/07 21:32:40;;;;;;;6.55;2.83;;;25.70;50.60;;;;;;10175554;28;20036;-58
2021/07/07 21:37:31;;;;;;;7.72;4.18;;;25.50;51.20;;;;;;10175555;28;20040;-57
2021/07/07 21:42:22;;;;;;;7.07;3.55;;;25.40;51.20;;;;;;10176332;28;20024;-55
2021/07/07 21:47:12;;;;;;;6.63;3.80;;;25.10;52.20;;;;;;10175258;28;20117;-54
2021/07/07 21:52:04;;;;;;;9.60;3.35;;;24.90;52.70;;;;;;10175294;28;20503;-57
2021/07/07 21:56:54;;;;;;;5.47;2.95;;;24.80;52.80;;;;;;10175797;28;20036;-53
2021/07/07 22:01:45;;;;;;;5.40;2.75;;;24.70;53.40;;;;;;10203652;28;20398;-56
2021/07/07 22:06:36;;;;;;;6.05;2.65;;;24.80;53.60;;;;;;10196751;28;20613;-57
2021/07/07 22:11:28;;;;;;;4.40;2.95;;;24.60;53.80;;;;;;10215270;28;20032;-55
2021/07/07 22:16:18;;;;;;;6.78;3.63;;;24.60;54.20;;;;;;10215466;28;20124;-53
2021/07/07 22:21:09;;;;;;;4.55;2.70;;;24.60;54.50;;;;;;10214521;28;20107;-55
2021/07/07 22:26:00;;;;;;;8.32;3.25;;;24.50;55.10;;;;;;10215050;28;20237;-54
2021/07/07 22:30:50;;;;;;;3.80;2.10;;;24.30;55.70;;;;;;10175967;28;20089;-53
2021/07/07 22:35:42;;;;;;;4.35;2.72;;;24.30;56.00;;;;;;10174129;28;20032;-55
2021/07/07 22:40:33;;;;;;;5.75;2.45;;;24.30;56.00;;;;;;10173510;28;20040;-54
2021/07/07 22:45:25;;;;;;;5.88;2.55;;;24.30;56.40;;;;;;10173377;28;20036;-53
2021/07/07 22:55:30;;;;;;;4.80;2.38;;;24.10;56.70;;;;;;10162516;28;20497;-55
2021/07/07 23:00:21;;;;;;;4.93;2.38;;;24.00;57.00;;;;;;10173290;28;20048;-53
2021/07/07 23:05:13;;;;;;;4.55;2.63;;;23.90;57.20;;;;;;10174049;28;20040;-52
2021/07/07 23:10:05;;;;;;;8.27;2.28;;;23.70;57.80;;;;;;10173132;28;20497;-54
2021/07/07 23:14:56;;;;;;;9.13;2.72;;;23.80;57.50;;;;;;10138362;28;20713;-57
2021/07/07 23:19:47;;;;;;;3.03;1.65;;;23.70;57.70;;;;;;10173120;28;20074;-57
2021/07/07 23:24:37;;;;;;;3.05;1.88;;;23.60;58.00;;;;;;10172825;28;20037;-55
2021/07/07 23:29:28;;;;;;;8.88;4.65;;;23.50;58.20;;;;;;10172717;28;20399;-51
2021/07/07 23:34:19;;;;;;;4.93;2.28;;;23.30;58.40;;;;;;10178769;28;20169;-53
2021/07/07 23:39:09;;;;;;;8.88;3.13;;;23.00;59.10;;;;;;10180277;28;20060;-53
2021/07/07 23:44:01;;;;;;;6.28;2.38;;;23.00;59.40;;;;;;10180151;28;20051;-51
2021/07/07 23:48:52;;;;;;;6.03;3.28;;;22.60;60.00;;;;;;10180093;28;20032;-53
2021/07/07 23:53:42;;;;;;;5.85;3.72;;;22.60;60.40;;;;;;10180196;28;20514;-54
2021/07/07 23:58:33;;;;;;;6.25;2.85;;;22.70;60.30;;;;;;10179669;28;20105;-57
